createdAt,value
2019-02-14T00:02:26.905Z,14.37
2019-02-14T00:04:58.192Z,14.97
2019-02-14T00:07:29.769Z,16.97
2019-02-14T00:10:01.229Z,18.90
2019-02-14T00:12:32.814Z,18.40
2019-02-14T00:15:04.378Z,16.40
2019-02-14T00:17:36.293Z,20.50
2019-02-14T00:20:09.579Z,20.00
2019-02-14T00:22:40.906Z,22.27
2019-02-14T00:25:12.798Z,19.80
2019-02-14T00:27:45.047Z,24.33
2019-02-14T00:30:16.430Z,20.67
2019-02-14T00:32:47.796Z,21.90
2019-02-14T00:35:24.956Z,20.20
2019-02-14T00:37:52.064Z,25.83
2019-02-14T00:40:23.421Z,21.00
2019-02-14T00:42:54.723Z,20.47
2019-02-14T00:45:26.044Z,25.57
2019-02-14T00:47:57.364Z,21.37
2019-02-14T00:50:28.626Z,18.67
2019-02-14T00:53:00.685Z,20.37
2019-02-14T00:55:32.451Z,20.57
2019-02-14T00:58:03.897Z,18.27
2019-02-14T01:00:35.860Z,22.43
2019-02-14T01:03:07.680Z,30.10
2019-02-14T01:05:39.026Z,21.37
2019-02-14T01:08:10.482Z,23.00
2019-02-14T01:10:42.112Z,23.47
2019-02-14T01:13:13.332Z,24.17
2019-02-14T01:15:44.989Z,25.20
2019-02-14T01:18:16.225Z,23.97
2019-02-14T01:20:47.568Z,24.60
2019-02-14T01:23:19.250Z,23.37
2019-02-14T01:25:50.453Z,22.93
2019-02-14T01:28:21.788Z,20.23
2019-02-14T01:30:53.178Z,25.70
2019-02-14T01:33:25.465Z,26.93
2019-02-14T01:35:57.021Z,25.47
2019-02-14T01:38:28.310Z,23.70
2019-02-14T01:41:00.114Z,21.17
2019-02-14T01:43:31.465Z,22.43
2019-02-14T01:46:02.903Z,22.20
2019-02-14T01:48:34.517Z,22.20
2019-02-14T01:51:05.827Z,23.07
2019-02-14T01:53:37.406Z,25.83
2019-02-14T01:56:08.731Z,19.63
2019-02-14T01:58:40.073Z,21.40
2019-02-14T02:01:11.611Z,18.80
2019-02-14T02:03:42.888Z,20.30
2019-02-14T02:06:14.146Z,24.07
2019-02-14T02:08:45.793Z,24.70
2019-02-14T02:11:17.131Z,21.17
2019-02-14T02:13:48.428Z,24.20
2019-02-14T02:16:19.630Z,22.77
2019-02-14T02:18:51.912Z,29.13
2019-02-14T02:21:23.264Z,25.03
2019-02-14T02:23:54.613Z,21.67
2019-02-14T02:26:25.893Z,24.97
2019-02-14T02:28:57.258Z,28.07
2019-02-14T02:31:28.474Z,22.97
2019-02-14T02:33:59.781Z,26.33
2019-02-14T02:36:31.574Z,25.57
2019-02-14T02:39:04.499Z,23.43
2019-02-14T02:41:37.077Z,24.07
2019-02-14T02:44:09.114Z,25.53
2019-02-14T02:46:40.608Z,21.60
2019-02-14T02:49:11.907Z,24.87
2019-02-14T02:51:43.454Z,25.90
2019-02-14T02:54:14.803Z,26.67
2019-02-14T02:56:46.409Z,25.47
2019-02-14T02:59:17.770Z,25.60
2019-02-14T03:01:49.102Z,24.17
2019-02-14T03:04:20.387Z,23.00
2019-02-14T03:06:52.026Z,21.73
2019-02-14T03:09:23.741Z,22.10
2019-02-14T03:11:55.409Z,21.50
2019-02-14T03:14:26.901Z,19.10
2019-02-14T03:16:58.261Z,19.00
2019-02-14T03:19:29.778Z,21.23
2019-02-14T03:22:00.962Z,18.23
2019-02-14T03:24:32.161Z,24.17
2019-02-14T03:27:03.509Z,21.23
2019-02-14T03:29:34.786Z,16.47
2019-02-14T03:32:06.195Z,21.43
2019-02-14T03:34:37.602Z,24.73
2019-02-14T03:37:10.373Z,20.20
2019-02-14T03:39:41.616Z,18.63
2019-02-14T03:42:12.957Z,21.20
2019-02-14T03:44:44.519Z,26.20
2019-02-14T03:47:15.964Z,18.23
2019-02-14T03:49:47.678Z,20.20
2019-02-14T03:52:19.053Z,16.87
2019-02-14T03:54:50.407Z,18.13
2019-02-14T03:57:21.662Z,24.87
2019-02-14T03:59:53.097Z,21.37
2019-02-14T04:02:24.433Z,21.87
2019-02-14T04:04:55.775Z,24.13
2019-02-14T04:07:27.212Z,23.87
2019-02-14T04:09:58.649Z,22.90
2019-02-14T04:12:29.835Z,20.60
2019-02-14T04:15:01.131Z,22.30
2019-02-14T04:17:32.457Z,17.57
2019-02-14T04:20:03.879Z,23.27
2019-02-14T04:22:36.325Z,20.60
2019-02-14T04:25:08.018Z,20.93
2019-02-14T04:27:39.382Z,19.43
2019-02-14T04:30:11.859Z,20.43
2019-02-14T04:32:43.142Z,24.67
2019-02-14T04:35:14.489Z,24.30
2019-02-14T04:37:45.814Z,21.53
2019-02-14T04:40:17.179Z,22.17
2019-02-14T04:42:48.432Z,26.07
2019-02-14T04:45:19.786Z,23.07
2019-02-14T04:47:51.179Z,22.20
2019-02-14T04:50:22.456Z,19.93
2019-02-14T04:52:53.725Z,21.43
2019-02-14T04:55:25.260Z,23.47
2019-02-14T04:57:57.165Z,22.70
2019-02-14T05:00:28.534Z,24.33
2019-02-14T05:03:00.095Z,24.00
2019-02-14T05:05:31.365Z,23.07
2019-02-14T05:08:03.264Z,22.33
2019-02-14T05:10:34.578Z,22.40
2019-02-14T05:13:05.916Z,28.13
2019-02-14T05:15:37.567Z,24.40
2019-02-14T05:18:09.224Z,27.17
2019-02-14T05:20:40.436Z,25.20
2019-02-14T05:23:12.103Z,24.13
2019-02-14T05:25:43.371Z,27.03
2019-02-14T05:28:14.579Z,22.27
2019-02-14T05:30:45.766Z,31.87
2019-02-14T05:33:17.159Z,26.77
2019-02-14T05:35:48.821Z,26.03
2019-02-14T05:38:20.066Z,26.30
2019-02-14T05:40:51.616Z,23.80
2019-02-14T05:43:23.513Z,21.43
2019-02-14T05:45:54.878Z,24.00
2019-02-14T05:48:26.424Z,22.93
2019-02-14T05:50:58.072Z,23.93
2019-02-14T05:53:29.342Z,26.13
2019-02-14T05:56:00.933Z,23.10
2019-02-14T05:58:32.158Z,22.50
2019-02-14T06:01:03.716Z,27.10
2019-02-14T06:03:35.130Z,24.43
2019-02-14T06:06:06.477Z,24.33
2019-02-14T06:08:37.678Z,23.80
2019-02-14T06:11:08.967Z,25.50
2019-02-14T06:13:40.176Z,24.03
2019-02-14T06:16:11.471Z,22.20
2019-02-14T06:18:43.090Z,26.10
2019-02-14T06:21:14.436Z,28.53
2019-02-14T06:23:45.632Z,26.73
2019-02-14T06:26:16.926Z,25.67
2019-02-14T06:28:48.124Z,24.63
2019-02-14T06:31:19.537Z,28.93
2019-02-14T06:33:50.944Z,28.53
2019-02-14T06:36:22.689Z,25.97
2019-02-14T06:38:55.105Z,27.77
2019-02-14T06:41:26.468Z,26.43
2019-02-14T06:43:57.902Z,29.57
2019-02-14T06:46:29.579Z,28.43
2019-02-14T06:49:00.962Z,30.37
2019-02-14T06:51:32.242Z,27.47
2019-02-14T06:54:03.742Z,28.40
2019-02-14T06:56:35.401Z,27.63
2019-02-14T06:59:06.744Z,28.20
2019-02-14T07:01:39.985Z,27.93
2019-02-14T07:04:11.327Z,26.03
2019-02-14T07:06:42.612Z,30.23
2019-02-14T07:09:13.964Z,28.97
2019-02-14T07:11:45.666Z,29.60
2019-02-14T07:14:17.266Z,29.83
2019-02-14T07:16:48.906Z,31.13
2019-02-14T07:19:20.743Z,31.30
2019-02-14T07:21:52.116Z,43.20
2019-02-14T07:24:23.713Z,49.53
2019-02-14T07:26:55.241Z,46.13
2019-02-14T07:29:26.534Z,39.00
2019-02-14T07:31:59.161Z,49.63
2019-02-14T07:34:31.046Z,37.43
2019-02-14T07:37:02.513Z,30.57
2019-02-14T07:39:34.114Z,24.50
2019-02-14T07:42:05.561Z,29.33
2019-02-14T07:44:37.242Z,30.47
2019-02-14T07:47:08.605Z,26.97
2019-02-14T07:49:40.113Z,28.77
2019-02-14T07:52:11.437Z,29.50
2019-02-14T07:54:42.788Z,27.87
2019-02-14T07:57:14.062Z,25.00
2019-02-14T07:59:45.443Z,31.53
2019-02-14T08:02:16.968Z,31.17
2019-02-14T08:04:48.241Z,30.40
2019-02-14T08:07:19.954Z,24.90
2019-02-14T08:09:51.545Z,26.67
2019-02-14T08:12:23.044Z,30.50
2019-02-14T08:14:55.276Z,30.77
2019-02-14T08:17:27.122Z,25.87
2019-02-14T08:19:58.604Z,26.20
2019-02-14T08:22:30.268Z,25.00
2019-02-14T08:25:01.533Z,25.07
2019-02-14T08:27:33.077Z,27.23
2019-02-14T08:30:05.190Z,26.63
2019-02-14T08:32:36.374Z,27.33
2019-02-14T08:35:08.207Z,28.23
2019-02-14T08:37:45.640Z,28.47
2019-02-14T08:40:20.932Z,26.03
2019-02-14T08:42:52.788Z,26.70
2019-02-14T08:45:24.558Z,25.17
2019-02-14T08:47:57.117Z,27.13
2019-02-14T08:50:28.410Z,27.13
2019-02-14T08:53:00.009Z,30.03
2019-02-14T08:55:31.414Z,26.80
2019-02-14T08:58:02.847Z,22.10
2019-02-14T09:00:34.956Z,31.10
2019-02-14T09:03:06.281Z,27.33
2019-02-14T09:05:37.909Z,26.07
2019-02-14T09:08:10.390Z,25.17
2019-02-14T09:10:41.675Z,31.33
2019-02-14T09:13:17.281Z,26.83
2019-02-14T09:15:46.235Z,29.13
2019-02-14T09:18:17.993Z,26.70
2019-02-14T09:20:49.435Z,35.07
2019-02-14T09:23:40.005Z,28.70
2019-02-14T09:26:11.333Z,31.97
2019-02-14T09:28:42.645Z,27.27
2019-02-14T09:31:14.087Z,29.37
2019-02-14T09:33:45.767Z,28.93
2019-02-14T09:36:16.933Z,26.57
2019-02-14T09:38:48.307Z,30.07
2019-02-14T09:41:19.730Z,29.50
2019-02-14T09:43:51.932Z,25.60
2019-02-14T09:46:23.288Z,30.27
2019-02-14T09:48:54.623Z,32.13
2019-02-14T09:51:26.013Z,31.80
2019-02-14T09:53:57.777Z,28.40
2019-02-14T09:56:29.163Z,29.37
2019-02-14T09:59:00.555Z,31.63
2019-02-14T10:01:31.921Z,25.13
2019-02-14T10:04:03.335Z,26.83
2019-02-14T10:06:36.952Z,26.17
2019-02-14T10:09:09.608Z,25.37
2019-02-14T10:11:40.950Z,25.87
2019-02-14T10:14:12.265Z,24.53
2019-02-14T10:16:43.613Z,26.97
2019-02-14T10:19:15.267Z,24.50
2019-02-14T10:21:46.776Z,25.90
2019-02-14T10:24:17.963Z,25.27
2019-02-14T10:26:49.288Z,27.97
2019-02-14T10:29:20.822Z,24.33
2019-02-14T10:31:52.379Z,27.33
2019-02-14T10:34:23.946Z,21.87
2019-02-14T10:36:55.450Z,26.00
2019-02-14T10:39:27.180Z,22.93
2019-02-14T10:41:58.623Z,24.60
2019-02-14T10:44:30.269Z,23.63
2019-02-14T10:47:01.822Z,29.03
2019-02-14T10:49:33.518Z,27.03
2019-02-14T10:52:04.896Z,28.07
2019-02-14T10:54:36.176Z,31.93
2019-02-14T10:57:08.032Z,25.50
2019-02-14T10:59:39.461Z,25.23
2019-02-14T11:02:11.628Z,27.47
2019-02-14T11:04:43.286Z,25.97
2019-02-14T11:07:14.621Z,28.67
2019-02-14T11:09:46.539Z,26.10
2019-02-14T11:12:17.933Z,34.03
2019-02-14T11:14:49.859Z,33.03
2019-02-14T11:17:21.251Z,29.83
2019-02-14T11:19:52.707Z,24.43
2019-02-14T11:22:23.999Z,23.20
2019-02-14T11:24:55.447Z,27.80
2019-02-14T11:27:26.743Z,25.97
2019-02-14T11:29:58.149Z,30.07
2019-02-14T11:32:29.456Z,24.13
2019-02-14T11:35:00.835Z,26.57
2019-02-14T11:37:32.126Z,30.70
2019-02-14T11:40:03.585Z,27.47
2019-02-14T11:42:35.013Z,26.10
2019-02-14T11:45:08.421Z,25.30
2019-02-14T11:47:39.705Z,27.97
2019-02-14T11:50:12.173Z,35.03
2019-02-14T11:52:43.630Z,27.90
2019-02-14T11:55:16.687Z,26.57
2019-02-14T11:57:48.141Z,29.07
2019-02-14T12:00:23.113Z,27.17
2019-02-14T12:02:55.934Z,24.37
2019-02-14T12:05:28.189Z,23.43
2019-02-14T12:08:00.092Z,25.67
2019-02-14T12:10:31.577Z,27.10
2019-02-14T12:13:02.914Z,23.33
2019-02-14T12:15:34.294Z,26.03
2019-02-14T12:18:05.673Z,25.03
2019-02-14T12:20:37.132Z,26.30
2019-02-14T12:23:08.788Z,25.00
2019-02-14T12:25:40.056Z,21.27
2019-02-14T12:28:11.538Z,22.97
2019-02-14T12:30:43.189Z,22.77
2019-02-14T12:33:14.490Z,22.00
2019-02-14T12:35:46.353Z,21.73
2019-02-14T12:38:19.710Z,21.23
2019-02-14T12:40:51.157Z,21.10
2019-02-14T12:43:22.657Z,25.63
2019-02-14T12:45:54.018Z,20.70
2019-02-14T12:48:25.316Z,25.83
2019-02-14T12:50:56.764Z,23.50
2019-02-14T12:53:28.072Z,22.47
2019-02-14T12:55:59.486Z,24.53
2019-02-14T12:58:30.840Z,24.17
2019-02-14T13:01:02.215Z,18.27
2019-02-14T13:03:33.525Z,21.23
2019-02-14T13:06:04.986Z,21.07
2019-02-14T13:08:36.541Z,25.20
2019-02-14T13:11:08.101Z,21.90
2019-02-14T13:13:39.499Z,24.13
2019-02-14T13:16:11.725Z,23.57
2019-02-14T13:18:42.995Z,23.80
2019-02-14T13:21:14.912Z,22.40
2019-02-14T13:23:46.795Z,21.67
2019-02-14T13:26:18.593Z,21.60
2019-02-14T13:28:49.893Z,19.37
2019-02-14T13:31:21.174Z,23.37
2019-02-14T13:33:52.596Z,23.97
2019-02-14T13:36:24.027Z,21.33
2019-02-14T13:38:55.680Z,19.63
2019-02-14T13:41:31.148Z,19.27
2019-02-14T13:44:00.420Z,20.33
2019-02-14T13:46:31.994Z,19.90
2019-02-14T13:49:03.455Z,22.37
2019-02-14T13:51:34.829Z,23.17
2019-02-14T13:54:06.283Z,20.60
2019-02-14T13:56:38.153Z,21.80
2019-02-14T13:59:09.653Z,19.33
2019-02-14T14:01:40.975Z,20.47
2019-02-14T14:04:13.594Z,17.93
2019-02-14T14:06:45.213Z,19.47
2019-02-14T14:09:16.664Z,19.63
2019-02-14T14:11:48.252Z,16.53
2019-02-14T14:14:19.934Z,16.87
2019-02-14T14:16:51.379Z,17.63
2019-02-14T14:19:22.791Z,17.43
2019-02-14T14:21:54.420Z,19.70
2019-02-14T14:24:25.998Z,17.27
2019-02-14T14:26:57.321Z,15.57
2019-02-14T14:29:28.900Z,20.63
2019-02-14T14:32:00.556Z,18.43
2019-02-14T14:34:31.913Z,18.07
2019-02-14T14:37:04.307Z,15.93
2019-02-14T14:39:35.579Z,16.83
2019-02-14T14:42:09.024Z,16.23
2019-02-14T14:44:44.397Z,17.60
2019-02-14T14:47:18.118Z,17.73
2019-02-14T14:49:49.756Z,18.07
2019-02-14T14:52:21.438Z,19.10
2019-02-14T14:54:52.779Z,15.93
2019-02-14T14:57:24.459Z,21.33
2019-02-14T14:59:55.816Z,20.37
2019-02-14T15:02:27.127Z,15.13
2019-02-14T15:04:58.320Z,13.63
2019-02-14T15:07:30.399Z,20.23
2019-02-14T15:10:01.876Z,16.90
2019-02-14T15:12:33.338Z,18.03
2019-02-14T15:15:04.832Z,18.57
2019-02-14T15:17:37.523Z,18.60
2019-02-14T15:20:09.131Z,17.33
2019-02-14T15:22:41.024Z,21.77
2019-02-14T15:25:12.528Z,17.10
2019-02-14T15:27:43.916Z,14.53
2019-02-14T15:30:15.399Z,20.27
2019-02-14T15:32:46.883Z,19.27
2019-02-14T15:35:18.165Z,17.20
2019-02-14T15:37:49.560Z,17.87
2019-02-14T15:40:21.059Z,15.57
2019-02-14T15:42:52.379Z,17.53
2019-02-14T15:45:23.675Z,16.37
2019-02-14T15:47:55.307Z,19.90
2019-02-14T15:50:27.882Z,17.40
2019-02-14T15:52:59.584Z,18.70
2019-02-14T15:55:30.920Z,17.83
2019-02-14T15:58:04.322Z,16.40
2019-02-14T16:00:35.595Z,15.60
2019-02-14T16:03:07.045Z,16.03
2019-02-14T16:05:40.288Z,19.87
2019-02-14T16:08:12.112Z,18.17
2019-02-14T16:10:43.471Z,15.37
2019-02-14T16:13:14.986Z,19.30
2019-02-14T16:15:46.747Z,15.77
2019-02-14T16:18:18.085Z,15.53
2019-02-14T16:20:49.858Z,14.97
2019-02-14T16:23:21.333Z,15.70
2019-02-14T16:25:54.075Z,15.67
2019-02-14T16:28:27.143Z,15.43
2019-02-14T16:30:58.855Z,15.57
2019-02-14T16:33:31.044Z,13.50
2019-02-14T16:36:02.571Z,16.33
2019-02-14T16:38:35.530Z,15.00
2019-02-14T16:41:07.737Z,17.57
2019-02-14T16:43:40.020Z,14.10
2019-02-14T16:46:11.539Z,18.07
2019-02-14T16:48:42.812Z,17.53
2019-02-14T16:51:14.121Z,15.70
2019-02-14T16:53:45.518Z,14.37
2019-02-14T16:56:16.908Z,16.20
2019-02-14T16:58:48.666Z,20.63
2019-02-14T17:01:19.940Z,15.77
2019-02-14T17:03:51.350Z,17.43
2019-02-14T17:06:22.932Z,16.63
2019-02-14T17:08:54.164Z,15.90
2019-02-14T17:11:25.443Z,14.37
2019-02-14T17:13:57.137Z,14.20
2019-02-14T17:16:28.472Z,15.03
2019-02-14T17:18:59.835Z,14.80
2019-02-14T17:21:31.555Z,15.93
2019-02-14T17:24:02.817Z,14.40
2019-02-14T17:26:36.400Z,22.07
2019-02-14T17:29:07.998Z,21.17
2019-02-14T17:31:39.259Z,17.00
2019-02-14T17:34:10.708Z,15.03
2019-02-14T17:36:42.300Z,12.73
2019-02-14T17:39:13.652Z,15.20
2019-02-14T17:41:45.079Z,17.30
2019-02-14T17:44:16.498Z,16.83
2019-02-14T17:46:47.848Z,16.63
2019-02-14T17:49:19.077Z,17.83
2019-02-14T17:51:50.379Z,15.33
2019-02-14T17:54:22.045Z,13.87
2019-02-14T17:56:53.387Z,14.70
2019-02-14T17:59:24.614Z,13.73
2019-02-14T18:01:56.601Z,14.37
2019-02-14T18:04:28.232Z,13.40
2019-02-14T18:06:59.570Z,13.17
2019-02-14T18:09:31.233Z,14.03
2019-02-14T18:12:02.579Z,13.20
2019-02-14T18:14:34.003Z,13.87
2019-02-14T18:17:05.865Z,13.47
2019-02-14T18:19:37.363Z,17.40
2019-02-14T18:22:08.989Z,16.90
2019-02-14T18:24:40.370Z,10.90
2019-02-14T18:27:12.086Z,13.47
2019-02-14T18:29:44.557Z,13.47
2019-02-14T18:32:16.275Z,27.63
2019-02-14T18:34:47.958Z,15.03
2019-02-14T18:37:19.330Z,12.33
2019-02-14T18:39:51.031Z,15.20
2019-02-14T18:42:22.856Z,20.70
2019-02-14T18:44:54.314Z,15.93
2019-02-14T18:47:25.821Z,14.47
2019-02-14T18:49:58.566Z,12.13
2019-02-14T18:52:30.277Z,15.60
2019-02-14T18:55:02.191Z,12.40
2019-02-14T18:57:33.794Z,23.33
2019-02-14T19:00:07.052Z,20.90
2019-02-14T19:02:39.456Z,20.10
2019-02-14T19:05:11.926Z,24.73
2019-02-14T19:07:44.593Z,15.83
2019-02-14T19:10:16.520Z,16.17
2019-02-14T19:12:48.138Z,13.70
2019-02-14T19:15:20.020Z,16.17
2019-02-14T19:17:51.948Z,17.17
2019-02-14T19:20:23.409Z,16.97
2019-02-14T19:22:55.068Z,20.60
2019-02-14T19:25:29.480Z,21.70
2019-02-14T19:27:59.829Z,23.33
2019-02-14T19:30:31.982Z,20.10
2019-02-14T19:33:03.576Z,20.40
2019-02-14T19:35:35.026Z,20.93
2019-02-14T19:38:06.801Z,20.40
2019-02-14T19:40:38.049Z,21.80
2019-02-14T19:43:09.438Z,21.13
2019-02-14T19:45:40.820Z,18.80
2019-02-14T19:48:12.280Z,18.80
2019-02-14T19:50:43.588Z,20.03
2019-02-14T19:53:15.286Z,21.97
2019-02-14T19:55:47.210Z,16.00
2019-02-14T19:58:19.041Z,21.07
2019-02-14T20:00:50.468Z,19.43
2019-02-14T20:03:22.000Z,20.77
2019-02-14T20:05:53.409Z,21.60
2019-02-14T20:08:24.990Z,23.50
2019-02-14T20:10:56.515Z,18.47
2019-02-14T20:13:28.053Z,18.63
2019-02-14T20:15:59.385Z,17.77
2019-02-14T20:18:30.779Z,15.43
2019-02-14T20:21:02.200Z,15.33
2019-02-14T20:23:35.183Z,13.80
2019-02-14T20:26:06.705Z,14.67
2019-02-14T20:28:38.079Z,14.13
2019-02-14T20:31:09.517Z,13.70
2019-02-14T20:33:41.155Z,21.57
2019-02-14T20:36:12.483Z,23.27
2019-02-14T20:38:44.081Z,21.20
2019-02-14T20:41:15.704Z,23.77
2019-02-14T20:43:47.504Z,18.47
2019-02-14T20:46:19.015Z,15.07
2019-02-14T20:48:51.186Z,18.23
2019-02-14T20:51:23.488Z,14.83
2019-02-14T20:53:54.998Z,13.60
2019-02-14T20:56:26.495Z,16.40
2019-02-14T20:58:58.399Z,16.97
2019-02-14T21:01:30.107Z,17.37
2019-02-14T21:04:01.662Z,16.00
2019-02-14T21:06:33.276Z,18.00
2019-02-14T21:09:05.871Z,16.80
2019-02-14T21:11:39.266Z,17.33
2019-02-14T21:14:10.740Z,19.53
2019-02-14T21:16:42.314Z,18.10
2019-02-14T21:19:14.133Z,16.87
2019-02-14T21:21:45.535Z,18.57
2019-02-14T21:24:17.079Z,16.27
2019-02-14T21:26:48.940Z,16.77
2019-02-14T21:29:20.649Z,16.73
2019-02-14T21:31:52.402Z,13.50
2019-02-14T21:34:23.963Z,16.67
2019-02-14T21:36:56.156Z,21.97
2019-02-14T21:39:28.217Z,15.03
2019-02-14T21:42:18.850Z,16.63
2019-02-14T21:44:33.062Z,15.90
2019-02-14T21:47:05.484Z,20.63
2019-02-14T21:49:37.136Z,16.67
2019-02-14T21:52:08.968Z,20.20
2019-02-14T21:54:40.770Z,18.00
2019-02-14T21:57:12.519Z,17.60
2019-02-14T21:59:44.404Z,15.73
2019-02-14T22:02:16.034Z,14.10
2019-02-14T22:04:48.677Z,17.10
2019-02-14T22:07:20.216Z,18.63
2019-02-14T22:09:51.847Z,18.00
2019-02-14T22:12:39.121Z,15.90
2019-02-14T22:14:58.169Z,14.20
2019-02-14T22:17:30.184Z,15.77
2019-02-14T22:20:01.884Z,16.37
2019-02-14T22:22:34.530Z,15.33
2019-02-14T22:25:08.262Z,15.57
2019-02-14T22:27:40.371Z,15.30
2019-02-14T22:30:14.702Z,17.30
2019-02-14T22:32:46.612Z,18.70
2019-02-14T22:35:18.626Z,18.93
2019-02-14T22:37:50.288Z,19.30
2019-02-14T22:40:21.745Z,17.43
2019-02-14T22:42:53.988Z,19.93
2019-02-14T22:45:25.494Z,17.67
2019-02-14T22:47:57.370Z,20.47
2019-02-14T22:50:29.179Z,19.77
2019-02-14T22:53:00.752Z,17.47
2019-02-14T22:55:32.467Z,20.67
2019-02-14T22:58:03.906Z,20.53
2019-02-14T23:00:43.519Z,21.63
2019-02-14T23:03:15.872Z,24.53
2019-02-14T23:05:47.700Z,25.93
2019-02-14T23:08:19.552Z,29.10
2019-02-14T23:10:51.930Z,26.43
2019-02-14T23:13:23.455Z,27.60
2019-02-14T23:15:54.884Z,28.20
2019-02-14T23:18:52.259Z,26.63
2019-02-14T23:21:23.788Z,26.23
2019-02-14T23:23:55.570Z,25.00
2019-02-14T23:26:27.117Z,23.37
2019-02-14T23:28:58.882Z,26.00
2019-02-14T23:31:30.328Z,23.60
2019-02-14T23:34:01.808Z,26.40
2019-02-14T23:36:33.644Z,23.97
2019-02-14T23:39:06.901Z,23.23
2019-02-14T23:41:40.057Z,23.63
2019-02-14T23:44:11.582Z,22.90
2019-02-14T23:46:43.084Z,26.17
2019-02-14T23:49:14.600Z,25.13
2019-02-14T23:51:46.036Z,24.37
2019-02-14T23:54:17.531Z,25.03
2019-02-14T23:56:49.115Z,23.20
2019-02-14T23:59:20.521Z,25.77
